Serebrjanye Prudy, Russia
Current Conditions -  °F | °C
As of 10:30 PM on Thursday 27 Nov 2014 (Local Time) from UUDD Reporting Station
Haze Haze  
Wind Chill: 10°   Ceiling: 400
Heat Index: 10°   Visibility: 2mi
Dew Point:   Wind: 2mph
Humidity: 92%   Direction: 100°E
Pressure: 30.5"   Gusts: NA
Location:  54.46°N, 38.72°E
Report Text: UUDD 271930Z 10001MPS 3200 BR BKN004 M12/M13 Q1033 3229009582290094 TEMPO 0400 FZFG
Loading
Personal Weather Stations






























Interactive Weather Map New forecast layout! Learn more

10-Day Weather Forecast

Advertisements
Track Severe Weather on mobile